createdAt,value
2023-02-06T00:02:13.311Z,8.18
2023-02-06T00:04:40.250Z,8.30
2023-02-06T00:07:07.176Z,8.95
2023-02-06T00:09:33.987Z,8.38
2023-02-06T00:12:00.811Z,8.35
2023-02-06T00:14:27.895Z,8.65
2023-02-06T00:16:54.730Z,8.32
2023-02-06T00:19:21.554Z,8.85
2023-02-06T00:21:48.453Z,9.55
2023-02-06T00:24:15.286Z,9.50
2023-02-06T00:26:42.139Z,8.73
2023-02-06T00:29:09.068Z,8.75
2023-02-06T00:31:36.117Z,9.20
2023-02-06T00:34:07.771Z,9.13
2023-02-06T00:36:34.672Z,9.07
2023-02-06T00:39:01.862Z,9.70
2023-02-06T00:41:28.788Z,8.55
2023-02-06T00:43:55.657Z,9.40
2023-02-06T00:46:23.925Z,9.10
2023-02-06T00:48:50.806Z,8.73
2023-02-06T00:51:17.783Z,9.73
2023-02-06T00:53:44.625Z,8.80
2023-02-06T00:56:11.456Z,9.90
2023-02-06T00:58:38.447Z,8.75
2023-02-06T01:01:05.306Z,9.93
2023-02-06T01:03:32.218Z,9.68
2023-02-06T01:05:59.129Z,9.40
2023-02-06T01:08:26.000Z,9.82
2023-02-06T01:10:52.837Z,9.43
2023-02-06T01:13:19.705Z,9.45
2023-02-06T01:15:46.775Z,9.73
2023-02-06T01:18:13.639Z,8.85
2023-02-06T01:20:40.624Z,8.68
2023-02-06T01:23:07.493Z,8.43
2023-02-06T01:25:34.660Z,8.57
2023-02-06T01:28:01.765Z,9.60
2023-02-06T01:30:28.664Z,8.40
2023-02-06T01:32:56.516Z,8.68
2023-02-06T01:35:23.390Z,8.90
2023-02-06T01:37:50.234Z,9.95
2023-02-06T01:40:18.608Z,9.02
2023-02-06T01:42:45.562Z,9.23
2023-02-06T01:45:21.564Z,9.70
2023-02-06T01:47:52.252Z,9.40
2023-02-06T01:50:20.092Z,9.02
2023-02-06T01:52:47.306Z,8.93
2023-02-06T01:55:14.247Z,8.43
2023-02-06T01:57:41.953Z,8.95
2023-02-06T02:00:09.936Z,8.52
2023-02-06T02:02:43.036Z,8.15
2023-02-06T02:05:09.888Z,8.90
2023-02-06T02:07:37.440Z,8.40
2023-02-06T02:10:05.044Z,8.73
2023-02-06T02:12:31.955Z,9.27
2023-02-06T02:14:58.786Z,8.70
2023-02-06T02:17:31.785Z,8.38
2023-02-06T02:20:22.604Z,8.13
2023-02-06T02:23:16.938Z,8.70
2023-02-06T02:26:14.661Z,8.45
2023-02-06T02:28:53.355Z,8.40
2023-02-06T02:31:47.101Z,8.48
2023-02-06T02:34:51.262Z,8.25
2023-02-06T02:37:46.069Z,7.93
2023-02-06T02:40:28.720Z,8.40
2023-02-06T02:43:09.128Z,8.70
2023-02-06T02:46:09.333Z,8.00
2023-02-06T02:48:38.579Z,8.23
2023-02-06T02:51:05.591Z,8.40
2023-02-06T02:53:32.504Z,8.55
2023-02-06T02:56:00.189Z,8.70
2023-02-06T02:58:31.614Z,8.07
2023-02-06T03:01:01.568Z,8.15
2023-02-06T03:03:28.914Z,8.88
2023-02-06T03:06:12.355Z,8.10
2023-02-06T03:08:48.229Z,8.27
2023-02-06T03:11:16.731Z,8.15
2023-02-06T03:13:48.136Z,7.93
2023-02-06T03:16:19.058Z,7.45
2023-02-06T03:19:07.325Z,7.75
2023-02-06T03:21:35.508Z,7.03
2023-02-06T03:24:06.021Z,7.60
2023-02-06T03:26:32.855Z,7.72
2023-02-06T03:29:01.193Z,7.18
2023-02-06T03:31:50.184Z,7.30
2023-02-06T03:34:28.331Z,6.95
2023-02-06T03:36:55.290Z,7.30
2023-02-06T03:39:22.177Z,6.95
2023-02-06T03:41:49.078Z,7.20
2023-02-06T03:44:19.740Z,7.40
2023-02-06T03:46:46.589Z,7.22
2023-02-06T03:49:14.860Z,8.10
2023-02-06T03:51:45.717Z,6.82
2023-02-06T03:54:12.919Z,7.45
2023-02-06T03:56:55.711Z,7.57
2023-02-06T03:59:22.627Z,6.95
2023-02-06T04:01:51.899Z,7.40
2023-02-06T04:04:19.741Z,7.15
2023-02-06T04:06:46.793Z,7.68
2023-02-06T04:09:13.615Z,7.10
2023-02-06T04:11:40.609Z,7.40
2023-02-06T04:14:07.472Z,6.78
2023-02-06T04:16:34.416Z,7.05
2023-02-06T04:19:01.527Z,7.13
2023-02-06T04:21:28.370Z,7.38
2023-02-06T04:23:55.227Z,7.10
2023-02-06T04:26:22.111Z,7.32
2023-02-06T04:28:48.956Z,7.00
2023-02-06T04:31:15.904Z,7.20
2023-02-06T04:33:42.836Z,7.60
2023-02-06T04:36:09.737Z,7.03
2023-02-06T04:38:36.570Z,7.13
2023-02-06T04:41:04.544Z,8.10
2023-02-06T04:43:31.838Z,7.07
2023-02-06T04:45:59.039Z,9.98
2023-02-06T04:48:26.124Z,9.70
2023-02-06T04:50:53.080Z,10.98
2023-02-06T04:53:20.118Z,9.93
2023-02-06T04:55:47.043Z,9.82
2023-02-06T04:58:13.902Z,10.05
2023-02-06T05:00:40.931Z,9.73
2023-02-06T05:03:08.106Z,9.05
2023-02-06T05:05:35.445Z,9.93
2023-02-06T05:08:02.546Z,10.07
2023-02-06T05:10:29.561Z,10.00
2023-02-06T05:12:56.770Z,10.38
2023-02-06T05:15:23.821Z,10.10
2023-02-06T05:17:50.788Z,11.35
2023-02-06T05:20:17.890Z,11.43
2023-02-06T05:22:44.787Z,10.65
2023-02-06T05:25:11.732Z,11.07
2023-02-06T05:27:38.600Z,12.18
2023-02-06T05:30:05.738Z,11.32
2023-02-06T05:32:32.723Z,14.30
2023-02-06T05:34:59.573Z,13.30
2023-02-06T05:37:26.586Z,12.57
2023-02-06T05:39:53.599Z,12.45
2023-02-06T05:42:20.526Z,12.68
2023-02-06T05:44:47.733Z,12.75
2023-02-06T05:47:14.885Z,12.05
2023-02-06T05:49:44.064Z,12.68
2023-02-06T05:52:11.329Z,12.50
2023-02-06T05:54:38.291Z,14.50
2023-02-06T05:57:05.270Z,13.02
2023-02-06T05:59:32.272Z,12.50
2023-02-06T06:01:59.288Z,12.60
2023-02-06T06:04:26.509Z,11.63
2023-02-06T06:06:53.557Z,11.75
2023-02-06T06:09:20.642Z,11.80
2023-02-06T06:11:47.893Z,11.38
2023-02-06T06:14:14.939Z,10.80
2023-02-06T06:16:42.702Z,10.95
2023-02-06T06:19:09.714Z,10.43
2023-02-06T06:21:36.739Z,10.43
2023-02-06T06:24:03.934Z,11.63
2023-02-06T06:26:31.104Z,10.25
2023-02-06T06:28:58.040Z,10.52
2023-02-06T06:31:25.079Z,9.73
2023-02-06T06:33:52.928Z,10.13
2023-02-06T06:36:19.988Z,9.70
2023-02-06T06:38:46.983Z,9.55
2023-02-06T06:41:13.958Z,9.90
2023-02-06T06:43:42.278Z,9.50
2023-02-06T06:46:09.327Z,8.80
2023-02-06T06:48:38.263Z,9.25
2023-02-06T06:51:06.062Z,8.85
2023-02-06T06:53:33.202Z,8.63
2023-02-06T06:56:06.905Z,8.70
2023-02-06T06:58:34.160Z,8.03
2023-02-06T07:01:01.361Z,9.32
2023-02-06T07:03:28.460Z,8.20
2023-02-06T07:05:55.687Z,13.32
2023-02-06T07:08:22.929Z,12.55
2023-02-06T07:10:49.993Z,12.52
2023-02-06T07:13:16.986Z,11.13
2023-02-06T07:15:43.929Z,11.23
2023-02-06T07:18:11.936Z,10.77
2023-02-06T07:20:39.175Z,10.00
2023-02-06T07:23:06.357Z,10.32
2023-02-06T07:25:33.540Z,10.15
2023-02-06T07:28:00.830Z,10.13
2023-02-06T07:30:27.918Z,9.32
2023-02-06T07:32:54.962Z,9.90
2023-02-06T07:35:21.979Z,9.80
2023-02-06T07:37:49.013Z,8.63
2023-02-06T07:40:16.090Z,9.23
2023-02-06T07:42:43.037Z,9.20
2023-02-06T07:45:19.635Z,8.88
2023-02-06T07:47:46.668Z,8.68
2023-02-06T07:50:13.636Z,8.90
2023-02-06T07:52:40.510Z,9.00
2023-02-06T07:55:07.787Z,8.40
2023-02-06T07:57:34.653Z,8.02
2023-02-06T08:00:01.542Z,8.27
2023-02-06T08:02:39.448Z,9.48
2023-02-06T08:05:06.641Z,8.60
2023-02-06T08:07:33.594Z,8.63
2023-02-06T08:10:00.574Z,9.60
2023-02-06T08:12:29.714Z,8.38
2023-02-06T08:14:56.747Z,8.45
2023-02-06T08:17:23.799Z,8.07
2023-02-06T08:19:50.710Z,7.75
2023-02-06T08:22:17.682Z,8.35
2023-02-06T08:24:45.254Z,8.32
2023-02-06T08:27:12.179Z,7.90
2023-02-06T08:29:42.710Z,7.82
2023-02-06T08:32:10.362Z,19.10
2023-02-06T08:34:38.925Z,14.02
2023-02-06T08:37:05.803Z,12.00
2023-02-06T08:39:32.748Z,11.77
2023-02-06T08:41:59.673Z,10.60
2023-02-06T08:44:26.653Z,11.85
2023-02-06T08:47:08.734Z,11.32
2023-02-06T08:49:36.362Z,11.23
2023-02-06T08:52:03.362Z,10.20
2023-02-06T08:54:30.377Z,10.40
2023-02-06T08:56:58.517Z,10.15
2023-02-06T08:59:25.570Z,10.50
2023-02-06T09:01:52.512Z,9.93
2023-02-06T09:04:19.459Z,9.50
2023-02-06T09:06:49.057Z,9.93
2023-02-06T09:09:16.318Z,9.80
2023-02-06T09:11:43.338Z,10.35
2023-02-06T09:14:14.171Z,10.48
2023-02-06T09:16:41.114Z,9.45
2023-02-06T09:19:08.111Z,9.23
2023-02-06T09:21:35.355Z,9.35
2023-02-06T09:24:06.733Z,9.07
2023-02-06T09:26:44.799Z,8.65
2023-02-06T09:29:20.592Z,8.85
2023-02-06T09:31:47.879Z,8.55
2023-02-06T09:34:14.894Z,8.98
2023-02-06T09:36:41.834Z,8.25
2023-02-06T09:39:09.098Z,8.07
2023-02-06T09:41:47.813Z,8.00
2023-02-06T09:44:34.205Z,7.32
2023-02-06T09:47:09.324Z,7.68
2023-02-06T09:49:48.338Z,8.07
2023-02-06T09:52:22.994Z,7.38
2023-02-06T09:57:23.674Z,7.10
2023-02-06T10:00:01.336Z,6.65
2023-02-06T10:03:03.825Z,6.93
2023-02-06T10:05:47.490Z,6.35
2023-02-06T10:08:21.816Z,6.72
2023-02-06T10:11:01.902Z,6.68
2023-02-06T10:13:49.745Z,6.13
2023-02-06T10:16:37.812Z,6.45
2023-02-06T10:19:14.865Z,6.85
2023-02-06T10:21:47.244Z,6.97
2023-02-06T10:24:20.168Z,6.75
2023-02-06T10:26:48.201Z,6.72
2023-02-06T10:29:25.094Z,6.30
2023-02-06T10:32:13.781Z,5.90
2023-02-06T10:35:05.975Z,5.78
2023-02-06T10:38:10.152Z,5.68
2023-02-06T10:40:42.869Z,5.90
2023-02-06T10:43:43.770Z,6.07
2023-02-06T10:46:33.075Z,6.15
2023-02-06T10:49:11.551Z,5.72
2023-02-06T10:51:42.624Z,5.80
2023-02-06T10:54:17.778Z,5.50
2023-02-06T10:56:45.874Z,5.80
2023-02-06T10:59:34.061Z,5.47
2023-02-06T11:02:21.362Z,5.05
2023-02-06T11:05:06.671Z,5.10
2023-02-06T11:07:45.432Z,4.93
2023-02-06T11:10:15.987Z,4.72
2023-02-06T11:12:47.098Z,5.13
2023-02-06T11:15:32.900Z,5.75
2023-02-06T11:18:05.634Z,5.22
2023-02-06T11:20:34.755Z,4.75
2023-02-06T11:23:19.210Z,5.25
2023-02-06T11:25:47.286Z,5.07
2023-02-06T11:28:17.417Z,5.05
2023-02-06T11:30:55.396Z,5.60
2023-02-06T11:33:45.619Z,4.90
2023-02-06T11:36:32.920Z,5.13
2023-02-06T11:39:20.878Z,4.97
2023-02-06T11:42:03.290Z,4.93
2023-02-06T11:44:36.890Z,5.32
2023-02-06T11:47:21.906Z,5.27
2023-02-06T11:49:48.894Z,4.97
2023-02-06T11:52:32.974Z,4.40
2023-02-06T11:55:02.574Z,4.72
2023-02-06T11:57:32.321Z,5.57
2023-02-06T12:00:01.794Z,5.55
2023-02-06T12:02:29.935Z,5.53
2023-02-06T12:05:11.595Z,5.63
2023-02-06T12:07:46.465Z,5.25
2023-02-06T12:10:17.864Z,5.90
2023-02-06T12:12:55.588Z,5.35
2023-02-06T12:15:46.835Z,5.47
2023-02-06T12:18:17.958Z,6.20
2023-02-06T12:21:20.674Z,5.05
2023-02-06T12:23:52.857Z,5.90
2023-02-06T12:26:21.006Z,6.03
2023-02-06T12:28:54.889Z,5.47
2023-02-06T12:31:25.924Z,5.57
2023-02-06T12:33:55.272Z,5.43
2023-02-06T12:36:30.299Z,5.72
2023-02-06T12:39:07.681Z,5.95
2023-02-06T12:41:34.563Z,5.85
2023-02-06T12:44:14.597Z,5.70
2023-02-06T12:46:41.675Z,5.63
2023-02-06T12:49:20.114Z,5.78
2023-02-06T12:51:58.209Z,5.60
2023-02-06T12:54:29.448Z,5.68
2023-02-06T12:57:02.906Z,5.53
2023-02-06T12:59:58.226Z,5.63
2023-02-06T13:02:45.941Z,5.43
2023-02-06T13:05:28.175Z,5.80
2023-02-06T13:07:56.833Z,5.53
2023-02-06T13:10:27.223Z,5.60
2023-02-06T13:13:01.234Z,5.68
2023-02-06T13:15:32.812Z,5.57
2023-02-06T13:18:00.142Z,5.32
2023-02-06T13:20:27.263Z,5.90
2023-02-06T13:23:12.577Z,5.72
2023-02-06T13:25:39.439Z,5.93
2023-02-06T13:28:25.713Z,5.80
2023-02-06T13:31:02.949Z,5.55
2023-02-06T13:33:43.936Z,5.35
2023-02-06T13:36:17.831Z,5.57
2023-02-06T13:38:44.820Z,5.80
2023-02-06T13:41:14.718Z,5.45
2023-02-06T13:43:42.425Z,6.18
2023-02-06T13:46:11.184Z,6.03
2023-02-06T13:49:29.183Z,6.05
2023-02-06T13:52:18.004Z,6.07
2023-02-06T13:55:00.228Z,5.65
2023-02-06T13:57:52.177Z,5.80
2023-02-06T14:00:28.975Z,5.75
2023-02-06T14:02:57.401Z,6.15
2023-02-06T14:05:34.516Z,6.43
2023-02-06T14:08:17.517Z,8.23
2023-02-06T14:11:19.436Z,7.90
2023-02-06T14:14:29.529Z,7.30
2023-02-06T14:17:11.048Z,7.45
2023-02-06T14:19:52.860Z,7.28
2023-02-06T14:22:41.621Z,7.30
2023-02-06T14:25:50.223Z,7.45
2023-02-06T14:28:25.578Z,7.55
2023-02-06T14:31:14.271Z,7.45
2023-02-06T14:34:18.244Z,7.00
2023-02-06T14:36:56.489Z,7.55
2023-02-06T14:39:49.023Z,6.93
2023-02-06T14:42:25.001Z,7.22
2023-02-06T14:45:00.324Z,7.10
2023-02-06T14:47:29.564Z,7.40
2023-02-06T14:49:57.154Z,7.57
2023-02-06T14:52:26.016Z,7.20
2023-02-06T14:54:53.062Z,7.72
2023-02-06T14:57:29.755Z,7.32
2023-02-06T15:00:01.785Z,7.22
2023-02-06T15:02:32.684Z,7.87
2023-02-06T15:04:59.977Z,7.63
2023-02-06T15:07:34.672Z,7.63
2023-02-06T15:12:38.705Z,7.18
2023-02-06T15:15:20.392Z,7.93
2023-02-06T15:18:07.257Z,7.22
2023-02-06T15:20:54.169Z,6.80
2023-02-06T15:23:45.918Z,7.57
2023-02-06T15:26:35.522Z,7.60
2023-02-06T15:29:03.846Z,7.32
2023-02-06T15:31:31.022Z,7.07
2023-02-06T15:33:59.172Z,7.57
2023-02-06T15:36:34.600Z,7.47
2023-02-06T15:39:02.052Z,7.35
2023-02-06T15:41:30.820Z,7.53
2023-02-06T15:44:07.225Z,8.00
2023-02-06T15:46:34.330Z,7.22
2023-02-06T15:49:01.391Z,7.65
2023-02-06T15:51:29.753Z,7.43
2023-02-06T15:54:29.049Z,7.57
2023-02-06T15:57:07.968Z,7.22
2023-02-06T15:59:36.694Z,6.93
2023-02-06T16:02:03.996Z,7.25
2023-02-06T16:04:36.412Z,6.72
2023-02-06T16:07:12.625Z,7.18
2023-02-06T16:09:54.584Z,7.40
2023-02-06T16:12:21.479Z,8.07
2023-02-06T16:15:37.549Z,7.50
2023-02-06T16:18:25.556Z,8.23
2023-02-06T16:20:52.530Z,7.70
2023-02-06T16:23:20.426Z,7.18
2023-02-06T16:26:08.074Z,8.63
2023-02-06T16:28:51.636Z,8.35
2023-02-06T16:31:18.670Z,7.63
2023-02-06T16:33:47.622Z,7.75
2023-02-06T16:36:16.038Z,7.47
2023-02-06T16:38:46.338Z,7.50
2023-02-06T16:41:26.996Z,7.65
2023-02-06T16:43:54.668Z,7.30
2023-02-06T16:46:21.683Z,8.10
2023-02-06T16:48:48.758Z,7.93
2023-02-06T16:51:16.929Z,7.65
2023-02-06T16:53:44.143Z,8.00
2023-02-06T16:56:12.285Z,7.60
2023-02-06T16:58:39.229Z,7.70
2023-02-06T17:01:08.499Z,8.05
2023-02-06T17:03:37.836Z,8.15
2023-02-06T17:06:05.251Z,7.93
2023-02-06T17:08:34.077Z,8.05
2023-02-06T17:11:00.903Z,7.88
2023-02-06T17:13:27.828Z,8.48
2023-02-06T17:15:54.754Z,8.27
2023-02-06T17:18:22.753Z,8.73
2023-02-06T17:20:51.917Z,8.70
2023-02-06T17:23:19.304Z,8.40
2023-02-06T17:25:46.289Z,8.32
2023-02-06T17:28:15.308Z,8.80
2023-02-06T17:30:42.307Z,8.65
2023-02-06T17:33:09.243Z,8.90
2023-02-06T17:35:39.254Z,8.52
2023-02-06T17:38:06.826Z,8.98
2023-02-06T17:40:34.344Z,8.80
2023-02-06T17:43:03.878Z,8.98
2023-02-06T17:45:30.913Z,8.57
2023-02-06T17:47:57.781Z,8.65
2023-02-06T17:50:25.499Z,8.55
2023-02-06T17:52:56.168Z,9.18
2023-02-06T17:55:23.775Z,9.38
2023-02-06T17:57:50.735Z,9.00
2023-02-06T18:00:18.757Z,9.15
2023-02-06T18:02:45.832Z,9.13
2023-02-06T18:05:12.987Z,9.60
2023-02-06T18:07:39.936Z,9.45
2023-02-06T18:10:07.269Z,9.10
2023-02-06T18:12:34.301Z,9.70
2023-02-06T18:15:01.188Z,10.05
2023-02-06T18:17:28.013Z,9.98
2023-02-06T18:19:54.964Z,10.00
2023-02-06T18:22:22.082Z,9.93
2023-02-06T18:24:49.588Z,10.13
2023-02-06T18:27:16.899Z,10.23
2023-02-06T18:29:49.860Z,9.70
2023-02-06T18:32:18.271Z,10.68
2023-02-06T18:34:45.242Z,10.13
2023-02-06T18:37:12.184Z,9.98
2023-02-06T18:39:39.625Z,10.10
2023-02-06T18:42:25.337Z,11.40
2023-02-06T18:44:52.273Z,10.30
2023-02-06T18:47:20.233Z,11.15
2023-02-06T18:49:47.077Z,10.25
2023-02-06T18:52:14.005Z,11.50
2023-02-06T18:54:40.922Z,11.75
2023-02-06T18:57:07.770Z,11.68
2023-02-06T18:59:35.066Z,11.07
2023-02-06T19:02:02.650Z,11.55
2023-02-06T19:04:29.700Z,11.65
2023-02-06T19:06:56.615Z,11.00
2023-02-06T19:09:23.498Z,10.75
2023-02-06T19:11:50.349Z,11.68
2023-02-06T19:14:17.742Z,12.20
2023-02-06T19:16:47.340Z,11.68
2023-02-06T19:19:14.420Z,11.95
2023-02-06T19:21:41.340Z,11.80
2023-02-06T19:24:08.411Z,12.23
2023-02-06T19:26:35.304Z,11.18
2023-02-06T19:29:02.192Z,11.57
2023-02-06T19:31:29.086Z,11.30
2023-02-06T19:33:57.906Z,11.40
2023-02-06T19:36:25.156Z,11.82
2023-02-06T19:38:59.243Z,11.80
2023-02-06T19:41:27.478Z,11.20
2023-02-06T19:43:55.325Z,11.63
2023-02-06T19:46:24.182Z,12.07
2023-02-06T19:48:51.495Z,11.70
2023-02-06T19:51:23.663Z,11.48
2023-02-06T19:53:50.980Z,12.30
2023-02-06T19:56:21.876Z,11.68
2023-02-06T19:58:53.217Z,12.57
2023-02-06T20:01:20.161Z,11.95
2023-02-06T20:03:47.185Z,12.32
2023-02-06T20:06:14.293Z,12.25
2023-02-06T20:08:43.064Z,12.18
2023-02-06T20:11:14.575Z,11.98
2023-02-06T20:13:41.606Z,12.32
2023-02-06T20:16:18.254Z,12.93
2023-02-06T20:18:45.262Z,12.93
2023-02-06T20:21:26.771Z,12.02
2023-02-06T20:23:55.014Z,13.30
2023-02-06T20:26:22.591Z,12.35
2023-02-06T20:28:49.634Z,13.27
2023-02-06T20:31:16.719Z,13.02
2023-02-06T20:33:43.742Z,13.82
2023-02-06T20:36:13.732Z,13.57
2023-02-06T20:38:40.649Z,12.93
2023-02-06T20:41:08.249Z,13.27
2023-02-06T20:43:36.239Z,13.65
2023-02-06T20:46:06.172Z,13.88
2023-02-06T20:48:34.005Z,12.85
2023-02-06T20:51:01.854Z,13.63
2023-02-06T20:53:29.550Z,13.73
2023-02-06T20:55:56.393Z,14.30
2023-02-06T20:58:23.263Z,14.35
2023-02-06T21:00:50.279Z,13.68
2023-02-06T21:03:17.397Z,14.65
2023-02-06T21:05:44.418Z,14.75
2023-02-06T21:08:11.275Z,14.25
2023-02-06T21:10:38.377Z,14.30
2023-02-06T21:13:05.408Z,14.60
2023-02-06T21:15:33.352Z,14.18
2023-02-06T21:18:00.247Z,15.35
2023-02-06T21:20:27.162Z,16.48
2023-02-06T21:22:55.133Z,15.55
2023-02-06T21:25:22.037Z,15.23
2023-02-06T21:27:49.002Z,15.75
2023-02-06T21:30:15.964Z,16.20
2023-02-06T21:32:42.820Z,15.93
2023-02-06T21:35:10.440Z,16.20
2023-02-06T21:37:37.765Z,15.98
2023-02-06T21:40:05.503Z,16.65
2023-02-06T21:42:32.641Z,16.25
2023-02-06T21:44:59.606Z,16.85
2023-02-06T21:47:26.467Z,17.40
2023-02-06T21:49:53.345Z,16.10
2023-02-06T21:52:20.243Z,17.95
2023-02-06T21:54:47.089Z,17.30
2023-02-06T21:57:14.009Z,17.92
2023-02-06T21:59:42.019Z,17.50
2023-02-06T22:02:10.668Z,17.42
2023-02-06T22:04:38.523Z,17.50
2023-02-06T22:07:05.441Z,17.95
2023-02-06T22:09:32.330Z,18.65
2023-02-06T22:11:59.379Z,18.65
2023-02-06T22:14:26.282Z,18.75
2023-02-06T22:16:53.479Z,18.80
2023-02-06T22:19:20.472Z,18.50
2023-02-06T22:21:47.400Z,18.63
2023-02-06T22:24:14.466Z,18.70
2023-02-06T22:26:41.621Z,19.23
2023-02-06T22:29:11.167Z,19.33
2023-02-06T22:31:38.632Z,19.17
2023-02-06T22:34:06.009Z,19.98
2023-02-06T22:36:33.186Z,20.08
2023-02-06T22:39:06.621Z,20.63
2023-02-06T22:41:34.273Z,20.38
2023-02-06T22:44:01.235Z,19.63
2023-02-06T22:46:30.070Z,20.77
2023-02-06T22:48:57.136Z,21.17
2023-02-06T22:51:24.039Z,21.52
2023-02-06T22:53:51.086Z,21.48
2023-02-06T22:56:32.069Z,19.95
2023-02-06T22:59:19.329Z,20.00
2023-02-06T23:01:47.226Z,21.20
2023-02-06T23:04:23.951Z,19.75
2023-02-06T23:06:50.884Z,21.83
2023-02-06T23:09:19.793Z,20.85
2023-02-06T23:11:46.866Z,21.05
2023-02-06T23:14:14.291Z,21.13
2023-02-06T23:16:41.244Z,21.88
2023-02-06T23:19:08.475Z,21.85
2023-02-06T23:21:37.088Z,21.17
2023-02-06T23:24:05.287Z,21.75
2023-02-06T23:26:32.560Z,22.95
2023-02-06T23:29:00.371Z,22.20
2023-02-06T23:31:27.779Z,22.45
2023-02-06T23:33:54.928Z,23.70
2023-02-06T23:36:23.716Z,23.55
2023-02-06T23:38:50.812Z,24.15
2023-02-06T23:41:19.696Z,24.20
2023-02-06T23:44:02.668Z,24.00
2023-02-06T23:46:30.879Z,22.67
2023-02-06T23:48:57.843Z,24.00
2023-02-06T23:51:25.003Z,23.40
2023-02-06T23:53:51.991Z,23.38
2023-02-06T23:56:27.324Z,24.73
